Time;durP1;ratioP1;P1;durP2;ratioP2;P2;SDS_P1;SDS_P2;PMS_P1;PMS_P2;Temp;Humidity;BMP_temperature;BMP_pressure;BME280_temperature;BME280_humidity;BME280_pressure;Samples;Min_cycle;Max_cycle;Signal;HPM_P1;HPM_P2
2022/01/06 00:00:10;;;;;;;;;;;2.70;99.90;;;;;;4962368;28;20365;-78
2022/01/06 00:02:39;;;;;;;;;;;2.70;99.90;;;;;;4961145;28;19914;-78
2022/01/06 00:05:06;;;;;;;;;;;2.70;99.90;;;;;;4931754;28;19914;-78
2022/01/06 00:07:33;;;;;;;;;;;2.60;99.90;;;;;;4948032;28;19917;-78
2022/01/06 00:09:59;;;;;;;;;;;2.60;99.90;;;;;;4945968;28;20563;-78
2022/01/06 00:12:37;;;;;;;;;;;2.60;99.90;;;;;;4930281;28;19925;-78
2022/01/06 00:15:26;;;;;;;;;;;2.70;99.90;;;;;;4946089;28;20289;-78
2022/01/06 00:23:31;;;;;;;;;;;2.70;99.90;;;;;;4960703;28;19910;-78
2022/01/06 00:25:58;;;;;;;;;;;2.70;99.90;;;;;;4944913;28;20266;-77
2022/01/06 00:28:25;;;;;;;;;;;2.60;99.90;;;;;;4945602;28;19914;-78
2022/01/06 00:30:51;;;;;;;;;;;2.60;99.90;;;;;;4943337;28;19914;-78
2022/01/06 00:33:17;;;;;;;;;;;2.60;99.90;;;;;;4957495;28;19921;-79
2022/01/06 00:35:44;;;;;;;;;;;2.60;99.90;;;;;;4944130;28;19914;-79
2022/01/06 00:38:10;;;;;;;;;;;2.60;99.90;;;;;;4961665;28;19917;-80
2022/01/06 00:40:37;;;;;;;;;;;2.50;99.90;;;;;;4929302;28;19921;-79
2022/01/06 00:43:04;;;;;;;;;;;2.50;99.90;;;;;;4940811;28;19914;-79
2022/01/06 00:45:31;;;;;;;;;;;2.50;99.90;;;;;;4944375;28;19910;-78
2022/01/06 00:47:57;;;;;;;;;;;2.50;99.90;;;;;;4959873;28;19916;-78
2022/01/06 00:50:24;;;;;;;;;;;2.50;99.90;;;;;;4942477;28;20408;-79
2022/01/06 00:52:50;;;;;;;;;;;2.50;99.90;;;;;;4925293;28;19910;-79
2022/01/06 00:55:16;;;;;;;;;;;2.50;99.90;;;;;;4912842;28;19922;-78
2022/01/06 00:57:43;;;;;;;;;;;2.60;99.90;;;;;;4960298;28;20419;-79
2022/01/06 01:00:09;;;;;;;;;;;2.60;99.90;;;;;;4943020;28;19910;-77
2022/01/06 01:02:36;;;;;;;;;;;2.60;99.90;;;;;;4956734;28;20701;-78
2022/01/06 01:05:03;;;;;;;;;;;2.50;99.90;;;;;;4959248;28;20298;-78
2022/01/06 01:07:29;;;;;;;;;;;2.50;99.90;;;;;;4944366;28;19914;-78
2022/01/06 01:09:55;;;;;;;;;;;2.50;99.90;;;;;;4926837;28;19913;-78
2022/01/06 01:12:24;;;;;;;;;;;2.40;99.90;;;;;;4956179;28;19910;-78
2022/01/06 01:14:58;;;;;;;;;;;2.40;99.90;;;;;;4960611;28;19925;-78
2022/01/06 01:17:26;;;;;;;;;;;2.40;99.90;;;;;;4960141;28;19933;-77
2022/01/06 01:19:53;;;;;;;;;;;2.40;99.90;;;;;;4943279;28;20276;-78
2022/01/06 01:22:19;;;;;;;;;;;2.40;99.90;;;;;;4940356;28;20353;-78
2022/01/06 01:24:46;;;;;;;;;;;2.40;99.90;;;;;;4957959;28;19914;-77
2022/01/06 01:27:14;;;;;;;;;;;2.40;99.90;;;;;;4943978;28;19921;-78
2022/01/06 01:29:55;;;;;;;;;;;2.40;99.90;;;;;;4958578;28;20299;-78
2022/01/06 01:32:29;;;;;;;;;;;2.40;99.90;;;;;;4926868;28;19911;-78
2022/01/06 01:35:00;;;;;;;;;;;2.40;99.90;;;;;;4927591;28;19922;-78
2022/01/06 01:37:27;;;;;;;;;;;2.40;99.90;;;;;;4941991;28;19917;-78
2022/01/06 01:39:57;;;;;;;;;;;2.40;99.90;;;;;;4927711;28;19913;-78
2022/01/06 01:42:23;;;;;;;;;;;2.40;99.90;;;;;;4939026;28;20325;-78
2022/01/06 01:44:51;;;;;;;;;;;2.40;99.90;;;;;;4943061;28;19921;-78
2022/01/06 01:47:27;;;;;;;;;;;2.40;99.90;;;;;;4943971;28;20362;-78
2022/01/06 01:49:58;;;;;;;;;;;2.40;99.90;;;;;;4927565;28;19914;-79
2022/01/06 01:52:25;;;;;;;;;;;2.40;99.90;;;;;;4940182;28;20186;-79
2022/01/06 01:54:51;;;;;;;;;;;2.40;99.90;;;;;;4932124;28;19922;-79
2022/01/06 01:57:17;;;;;;;;;;;2.40;99.90;;;;;;4941500;28;20396;-79
2022/01/06 01:59:45;;;;;;;;;;;2.40;99.90;;;;;;4944187;28;19914;-79
2022/01/06 02:02:11;;;;;;;;;;;2.30;99.90;;;;;;4955697;28;20313;-79
2022/01/06 02:04:37;;;;;;;;;;;2.40;99.90;;;;;;4948300;28;19910;-79
2022/01/06 02:07:04;;;;;;;;;;;2.40;99.90;;;;;;4943251;28;19921;-79
2022/01/06 02:09:30;;;;;;;;;;;2.40;99.90;;;;;;4957471;28;20358;-79
2022/01/06 02:11:56;;;;;;;;;;;2.40;99.90;;;;;;4939281;28;19918;-79
2022/01/06 02:14:25;;;;;;;;;;;2.40;99.90;;;;;;4957336;28;20281;-79
2022/01/06 02:16:53;;;;;;;;;;;2.40;99.90;;;;;;4942728;28;19921;-79
2022/01/06 02:19:20;;;;;;;;;;;2.40;99.90;;;;;;4941910;28;19918;-78
2022/01/06 02:21:46;;;;;;;;;;;2.40;99.90;;;;;;4940960;28;19906;-78
2022/01/06 02:24:12;;;;;;;;;;;2.30;99.90;;;;;;4955085;28;19917;-78
2022/01/06 02:26:39;;;;;;;;;;;2.40;99.90;;;;;;4929107;28;19914;-79
2022/01/06 02:29:06;;;;;;;;;;;2.40;99.90;;;;;;4943031;28;19986;-79
2022/01/06 02:31:39;;;;;;;;;;;2.40;99.90;;;;;;4957639;28;20296;-78
2022/01/06 02:34:05;;;;;;;;;;;2.40;99.90;;;;;;4947887;28;20273;-79
2022/01/06 02:36:31;;;;;;;;;;;2.40;99.90;;;;;;4957885;28;20404;-78
2022/01/06 02:38:57;;;;;;;;;;;2.40;99.90;;;;;;4935029;28;19921;-78
2022/01/06 02:41:24;;;;;;;;;;;2.40;99.90;;;;;;4928702;28;20511;-78
2022/01/06 02:43:50;;;;;;;;;;;2.40;99.90;;;;;;4928966;28;20370;-79
2022/01/06 02:46:16;;;;;;;;;;;2.40;99.90;;;;;;4929879;28;19910;-79
2022/01/06 02:48:43;;;;;;;;;;;2.30;99.90;;;;;;4942040;28;19917;-79
2022/01/06 02:51:09;;;;;;;;;;;2.30;99.90;;;;;;4954999;28;19910;-79
2022/01/06 02:53:35;;;;;;;;;;;2.30;99.90;;;;;;4952652;28;19914;-79
2022/01/06 02:56:01;;;;;;;;;;;2.30;99.90;;;;;;4940604;28;19914;-79
2022/01/06 02:58:27;;;;;;;;;;;2.30;99.90;;;;;;4957972;28;20369;-79
2022/01/06 03:00:54;;;;;;;;;;;2.30;99.90;;;;;;4925225;28;19945;-79
2022/01/06 03:03:20;;;;;;;;;;;2.30;99.90;;;;;;4938857;28;19914;-79
2022/01/06 03:05:46;;;;;;;;;;;2.30;99.90;;;;;;4942075;28;19929;-79
2022/01/06 03:08:13;;;;;;;;;;;2.30;99.90;;;;;;4942998;28;19914;-79
2022/01/06 03:10:43;;;;;;;;;;;2.30;99.90;;;;;;4956816;28;19917;-79
2022/01/06 03:13:09;;;;;;;;;;;2.30;99.90;;;;;;4924600;28;19914;-79
2022/01/06 03:15:36;;;;;;;;;;;2.30;99.90;;;;;;4942052;28;19922;-79
2022/01/06 03:18:02;;;;;;;;;;;2.30;99.90;;;;;;4942449;28;19918;-79
2022/01/06 03:20:29;;;;;;;;;;;2.40;99.90;;;;;;4911157;28;20324;-79
2022/01/06 03:22:56;;;;;;;;;;;2.30;99.90;;;;;;4939072;28;19921;-79
2022/01/06 03:25:22;;;;;;;;;;;2.40;99.90;;;;;;4941563;28;19925;-78
2022/01/06 03:27:49;;;;;;;;;;;2.40;99.90;;;;;;4929313;28;20392;-79
2022/01/06 03:30:17;;;;;;;;;;;2.40;99.90;;;;;;4957929;28;20365;-79
2022/01/06 03:32:44;;;;;;;;;;;2.30;99.90;;;;;;4954496;28;19918;-78
2022/01/06 03:35:12;;;;;;;;;;;2.30;99.90;;;;;;4927239;28;19918;-78
2022/01/06 03:37:39;;;;;;;;;;;2.30;99.90;;;;;;4959317;28;19910;-78
2022/01/06 03:40:05;;;;;;;;;;;2.20;99.90;;;;;;4956147;28;20281;-79
2022/01/06 03:42:32;;;;;;;;;;;2.20;99.90;;;;;;4939036;28;19910;-79
2022/01/06 03:44:59;;;;;;;;;;;2.20;99.90;;;;;;4942165;28;19941;-79
2022/01/06 03:47:25;;;;;;;;;;;2.20;99.90;;;;;;4909887;28;19918;-80
2022/01/06 03:49:51;;;;;;;;;;;2.20;99.90;;;;;;4925290;28;19925;-79
2022/01/06 03:52:17;;;;;;;;;;;2.20;99.90;;;;;;4938170;28;20394;-79
2022/01/06 03:54:44;;;;;;;;;;;2.10;99.90;;;;;;4940769;28;19914;-79
2022/01/06 03:57:10;;;;;;;;;;;2.10;99.90;;;;;;4910579;28;20301;-79
2022/01/06 03:59:36;;;;;;;;;;;2.20;99.90;;;;;;4926603;28;19919;-79
2022/01/06 04:02:03;;;;;;;;;;;2.10;99.90;;;;;;4929090;28;19933;-79
2022/01/06 04:04:30;;;;;;;;;;;2.10;99.90;;;;;;4944734;28;19917;-79
2022/01/06 04:06:56;;;;;;;;;;;2.10;99.90;;;;;;4944983;28;20385;-79
2022/01/06 04:09:22;;;;;;;;;;;2.10;99.90;;;;;;4944305;28;19921;-79
2022/01/06 04:11:49;;;;;;;;;;;2.10;99.90;;;;;;4943549;28;19917;-80
2022/01/06 04:14:15;;;;;;;;;;;2.10;99.90;;;;;;4960718;28;19986;-79
2022/01/06 04:16:41;;;;;;;;;;;2.10;99.90;;;;;;4960142;28;20377;-79
2022/01/06 04:19:09;;;;;;;;;;;2.10;99.90;;;;;;4945505;28;19917;-79
2022/01/06 04:21:35;;;;;;;;;;;2.10;99.90;;;;;;4942918;28;19921;-79
2022/01/06 04:24:01;;;;;;;;;;;2.10;99.90;;;;;;4957867;28;20388;-79
2022/01/06 04:26:28;;;;;;;;;;;2.00;99.90;;;;;;4944749;28;20293;-79
2022/01/06 04:28:54;;;;;;;;;;;2.00;99.90;;;;;;4961446;28;19906;-79
2022/01/06 04:31:20;;;;;;;;;;;2.10;99.90;;;;;;4928856;28;19910;-79
2022/01/06 04:33:47;;;;;;;;;;;2.00;99.90;;;;;;4958789;28;19906;-78
2022/01/06 04:36:13;;;;;;;;;;;2.00;99.90;;;;;;4961795;28;19922;-78
2022/01/06 04:38:39;;;;;;;;;;;1.90;99.90;;;;;;4945583;28;20696;-79
2022/01/06 04:41:06;;;;;;;;;;;2.00;99.90;;;;;;4943763;28;19918;-79
2022/01/06 04:43:32;;;;;;;;;;;1.90;99.90;;;;;;4940604;28;19934;-79
2022/01/06 04:45:59;;;;;;;;;;;1.90;99.90;;;;;;4944495;28;19926;-79
2022/01/06 04:48:25;;;;;;;;;;;1.90;99.90;;;;;;4945309;28;19921;-79
2022/01/06 04:50:51;;;;;;;;;;;1.90;99.90;;;;;;4931889;28;20254;-79
2022/01/06 04:53:17;;;;;;;;;;;1.80;99.90;;;;;;4926348;28;20254;-78
2022/01/06 04:55:44;;;;;;;;;;;1.80;99.90;;;;;;4928050;28;19926;-79
2022/01/06 04:58:10;;;;;;;;;;;1.80;99.90;;;;;;4929352;28;20290;-79
2022/01/06 05:00:36;;;;;;;;;;;1.80;99.90;;;;;;4943341;28;19917;-79
2022/01/06 05:03:02;;;;;;;;;;;1.70;99.90;;;;;;4957482;28;19914;-79
2022/01/06 05:05:28;;;;;;;;;;;1.80;99.90;;;;;;4943126;28;20306;-79
2022/01/06 05:07:55;;;;;;;;;;;1.70;99.90;;;;;;4934571;28;19914;-79
2022/01/06 05:10:21;;;;;;;;;;;1.70;99.90;;;;;;4948354;28;19910;-79
2022/01/06 05:12:47;;;;;;;;;;;1.80;99.90;;;;;;4925535;28;19918;-79
2022/01/06 05:15:14;;;;;;;;;;;1.70;99.90;;;;;;4943491;28;19929;-78
2022/01/06 05:17:41;;;;;;;;;;;1.70;99.90;;;;;;4961057;28;19914;-79
2022/01/06 05:20:08;;;;;;;;;;;1.70;99.90;;;;;;4958545;28;19914;-78
2022/01/06 05:22:36;;;;;;;;;;;1.70;99.90;;;;;;4926283;28;19910;-78
2022/01/06 05:25:03;;;;;;;;;;;1.70;99.90;;;;;;4943269;28;19914;-78
2022/01/06 05:27:29;;;;;;;;;;;1.70;99.90;;;;;;4949138;28;19918;-78
2022/01/06 05:29:55;;;;;;;;;;;1.80;99.90;;;;;;4958945;28;19933;-78
2022/01/06 05:32:21;;;;;;;;;;;1.70;99.90;;;;;;4955916;28;20289;-78
2022/01/06 05:34:47;;;;;;;;;;;1.80;99.90;;;;;;4929434;28;19914;-78
2022/01/06 05:37:14;;;;;;;;;;;1.70;99.90;;;;;;4943130;28;20293;-78
2022/01/06 05:39:40;;;;;;;;;;;1.70;99.90;;;;;;4942184;28;20475;-78
2022/01/06 05:42:06;;;;;;;;;;;1.80;99.90;;;;;;4924296;28;20105;-78
2022/01/06 05:44:34;;;;;;;;;;;1.80;99.90;;;;;;4943610;28;20296;-78
2022/01/06 05:47:00;;;;;;;;;;;1.80;99.90;;;;;;4952269;28;20250;-78
2022/01/06 05:49:27;;;;;;;;;;;1.80;99.90;;;;;;4958473;28;20285;-76
2022/01/06 05:51:53;;;;;;;;;;;1.80;99.90;;;;;;4911084;28;19925;-77
2022/01/06 05:54:19;;;;;;;;;;;1.80;99.90;;;;;;4912325;28;19929;-77
2022/01/06 05:56:45;;;;;;;;;;;1.80;99.90;;;;;;4958863;28;19910;-77
2022/01/06 05:59:12;;;;;;;;;;;1.80;99.90;;;;;;4959558;28;19940;-79
2022/01/06 06:01:38;;;;;;;;;;;1.80;99.90;;;;;;4957046;28;20226;-78
2022/01/06 06:04:04;;;;;;;;;;;1.70;99.90;;;;;;4939973;28;19918;-78
2022/01/06 06:06:30;;;;;;;;;;;1.70;99.90;;;;;;4973944;28;20250;-79
2022/01/06 06:08:56;;;;;;;;;;;1.70;99.90;;;;;;4943061;28;19917;-78
2022/01/06 06:11:23;;;;;;;;;;;1.70;99.90;;;;;;4925344;28;19918;-78
2022/01/06 06:13:49;;;;;;;;;;;1.60;99.90;;;;;;4909675;28;20292;-78
2022/01/06 06:16:15;;;;;;;;;;;1.60;99.90;;;;;;4942962;28;20382;-78
2022/01/06 06:18:41;;;;;;;;;;;1.60;99.90;;;;;;4926812;28;21163;-79
2022/01/06 06:21:08;;;;;;;;;;;1.60;99.90;;;;;;4926628;28;20397;-78
2022/01/06 06:23:35;;;;;;;;;;;1.60;99.90;;;;;;4955472;28;19917;-80
2022/01/06 06:26:01;;;;;;;;;;;1.60;99.90;;;;;;4929038;28;20367;-81
2022/01/06 06:28:27;;;;;;;;;;;1.70;99.90;;;;;;4913062;28;20349;-81
2022/01/06 06:30:53;;;;;;;;;;;1.70;99.90;;;;;;4925492;28;19933;-78
2022/01/06 06:33:19;;;;;;;;;;;1.70;99.90;;;;;;4956557;28;19914;-78
2022/01/06 06:35:46;;;;;;;;;;;1.70;99.90;;;;;;4942384;28;19932;-77
2022/01/06 06:38:12;;;;;;;;;;;1.60;99.90;;;;;;4925678;28;19918;-77
2022/01/06 06:40:38;;;;;;;;;;;1.60;99.90;;;;;;4928204;28;19910;-77
2022/01/06 06:43:04;;;;;;;;;;;1.60;99.90;;;;;;4923276;28;19914;-77
2022/01/06 06:45:30;;;;;;;;;;;1.60;99.90;;;;;;4911413;28;20341;-77
2022/01/06 06:47:57;;;;;;;;;;;1.60;99.90;;;;;;4927166;28;19967;-78
2022/01/06 06:50:23;;;;;;;;;;;1.60;99.90;;;;;;4958149;28;20362;-77
2022/01/06 06:52:49;;;;;;;;;;;1.50;99.90;;;;;;4955139;28;19929;-77
2022/01/06 06:55:15;;;;;;;;;;;1.50;99.90;;;;;;4958414;28;19914;-78
2022/01/06 06:57:42;;;;;;;;;;;1.50;99.90;;;;;;4944255;28;20349;-77
2022/01/06 07:00:09;;;;;;;;;;;1.50;99.90;;;;;;4957560;28;20186;-77
2022/01/06 07:02:36;;;;;;;;;;;1.40;99.90;;;;;;4954696;28;19918;-77
2022/01/06 07:05:03;;;;;;;;;;;1.50;99.90;;;;;;4957935;28;20357;-78
2022/01/06 07:07:29;;;;;;;;;;;1.40;99.90;;;;;;4958898;28;19914;-78
2022/01/06 07:09:55;;;;;;;;;;;1.40;99.90;;;;;;4940778;28;20288;-78
2022/01/06 07:12:21;;;;;;;;;;;1.40;99.90;;;;;;4939728;28;19914;-78
2022/01/06 07:14:48;;;;;;;;;;;1.40;99.90;;;;;;4958329;28;19910;-78
2022/01/06 07:17:14;;;;;;;;;;;1.40;99.90;;;;;;4958031;28;20285;-78
2022/01/06 07:19:40;;;;;;;;;;;1.40;99.90;;;;;;4957232;28;19921;-78
2022/01/06 07:22:06;;;;;;;;;;;1.40;99.90;;;;;;4938019;28;19914;-79
2022/01/06 07:24:33;;;;;;;;;;;1.40;99.90;;;;;;4941803;28;19926;-78
2022/01/06 07:27:00;;;;;;;;;;;1.40;99.90;;;;;;4942159;28;19907;-79
2022/01/06 07:29:27;;;;;;;;;;;1.40;99.90;;;;;;4943354;28;19914;-78
2022/01/06 07:31:54;;;;;;;;;;;1.40;99.90;;;;;;4910866;28;20377;-78
2022/01/06 07:34:21;;;;;;;;;;;1.30;99.90;;;;;;4923387;28;19914;-78
2022/01/06 07:36:47;;;;;;;;;;;1.30;99.90;;;;;;4956982;28;19921;-79
2022/01/06 07:39:14;;;;;;;;;;;1.30;99.90;;;;;;4944707;28;20384;-79
2022/01/06 07:41:40;;;;;;;;;;;1.30;99.90;;;;;;4944215;28;19917;-78
2022/01/06 07:44:07;;;;;;;;;;;1.30;99.90;;;;;;4913320;28;19922;-79
2022/01/06 07:46:34;;;;;;;;;;;1.30;99.90;;;;;;4944639;28;19914;-78
2022/01/06 07:49:01;;;;;;;;;;;1.20;99.90;;;;;;4946041;28;19914;-77
2022/01/06 07:51:28;;;;;;;;;;;1.30;99.90;;;;;;4943530;28;19958;-78
2022/01/06 07:53:54;;;;;;;;;;;1.20;99.90;;;;;;4910881;28;19918;-77
2022/01/06 07:56:21;;;;;;;;;;;1.20;99.90;;;;;;4929252;28;19929;-77
2022/01/06 07:58:48;;;;;;;;;;;1.30;99.90;;;;;;4961903;28;20365;-78
2022/01/06 08:01:14;;;;;;;;;;;1.20;99.90;;;;;;4945362;28;19917;-78
2022/01/06 08:03:41;;;;;;;;;;;1.20;99.90;;;;;;4911205;28;19918;-78
2022/01/06 08:06:08;;;;;;;;;;;1.20;99.90;;;;;;4945682;28;19918;-79
2022/01/06 08:08:34;;;;;;;;;;;1.20;99.90;;;;;;4929767;28;19910;-77
2022/01/06 08:11:00;;;;;;;;;;;1.20;99.90;;;;;;4958394;28;19924;-77
2022/01/06 08:13:26;;;;;;;;;;;1.20;99.90;;;;;;4925793;28;19918;-77
2022/01/06 08:15:53;;;;;;;;;;;1.20;99.90;;;;;;4929301;28;20302;-77
2022/01/06 08:18:19;;;;;;;;;;;1.10;99.90;;;;;;4945587;28;19916;-77
2022/01/06 08:20:45;;;;;;;;;;;1.20;99.90;;;;;;4943262;28;19909;-77
2022/01/06 08:23:11;;;;;;;;;;;1.20;99.90;;;;;;4926057;28;19910;-77
2022/01/06 08:25:38;;;;;;;;;;;1.20;99.90;;;;;;4928553;28;20285;-77
2022/01/06 08:28:04;;;;;;;;;;;1.20;99.90;;;;;;4944725;28;20364;-77
2022/01/06 08:30:31;;;;;;;;;;;1.20;99.90;;;;;;4942967;28;19914;-77
2022/01/06 08:32:59;;;;;;;;;;;1.20;99.90;;;;;;4940820;28;20384;-77
2022/01/06 08:35:25;;;;;;;;;;;1.20;99.90;;;;;;4944331;28;20283;-78
2022/01/06 08:37:52;;;;;;;;;;;1.30;99.90;;;;;;4928707;28;20305;-79
2022/01/06 08:40:18;;;;;;;;;;;1.30;99.90;;;;;;4943291;28;19913;-77
2022/01/06 08:42:48;;;;;;;;;;;1.30;99.90;;;;;;4914062;28;19914;-77
2022/01/06 08:45:16;;;;;;;;;;;1.40;99.90;;;;;;4928145;28;19945;-79
2022/01/06 08:47:43;;;;;;;;;;;1.40;99.90;;;;;;4946671;28;19910;-77
2022/01/06 08:50:10;;;;;;;;;;;1.50;99.90;;;;;;4942826;28;19914;-77
2022/01/06 08:52:36;;;;;;;;;;;1.50;99.90;;;;;;4943292;28;19937;-77
2022/01/06 08:55:04;;;;;;;;;;;1.60;99.90;;;;;;4929096;28;19906;-77
2022/01/06 08:57:30;;;;;;;;;;;1.70;99.90;;;;;;4962718;28;19921;-77
2022/01/06 08:59:57;;;;;;;;;;;1.70;99.90;;;;;;4959175;28;19922;-77
2022/01/06 09:02:24;;;;;;;;;;;1.80;99.90;;;;;;4958221;28;20288;-78
2022/01/06 09:04:51;;;;;;;;;;;1.80;99.90;;;;;;4944340;28;19917;-79
2022/01/06 09:07:17;;;;;;;;;;;1.90;99.90;;;;;;4944665;28;19918;-80
2022/01/06 09:09:44;;;;;;;;;;;1.90;99.90;;;;;;4913172;28;19929;-79
2022/01/06 09:12:18;;;;;;;;;;;1.90;99.90;;;;;;4925765;28;19922;-79
2022/01/06 09:14:44;;;;;;;;;;;2.00;99.90;;;;;;4928282;28;19917;-77
2022/01/06 09:17:11;;;;;;;;;;;2.10;99.90;;;;;;4961746;28;19922;-77
2022/01/06 09:19:37;;;;;;;;;;;2.10;99.90;;;;;;4929466;28;19917;-77
2022/01/06 09:22:03;;;;;;;;;;;2.10;99.90;;;;;;4940285;28;19914;-79
2022/01/06 09:24:30;;;;;;;;;;;2.20;99.90;;;;;;4960547;28;20342;-79
2022/01/06 09:26:56;;;;;;;;;;;2.20;99.90;;;;;;4944138;28;19937;-78
2022/01/06 09:29:22;;;;;;;;;;;2.30;99.90;;;;;;4943612;28;19921;-79
2022/01/06 09:31:48;;;;;;;;;;;2.40;99.90;;;;;;4942124;28;19925;-79
2022/01/06 09:34:15;;;;;;;;;;;2.40;99.90;;;;;;4942282;28;20354;-79
2022/01/06 09:36:41;;;;;;;;;;;2.50;99.90;;;;;;4930643;28;19922;-79
2022/01/06 09:39:09;;;;;;;;;;;2.60;99.90;;;;;;4947051;28;19938;-79
2022/01/06 09:41:35;;;;;;;;;;;2.60;99.90;;;;;;4931522;28;19956;-79
2022/01/06 09:44:02;;;;;;;;;;;2.70;99.90;;;;;;4928857;28;20361;-80
2022/01/06 09:46:30;;;;;;;;;;;2.80;99.90;;;;;;4946638;28;19914;-80
2022/01/06 09:48:59;;;;;;;;;;;2.80;99.90;;;;;;4946428;28;19910;-80
2022/01/06 09:51:26;;;;;;;;;;;2.90;99.90;;;;;;4958503;28;20357;-80
2022/01/06 09:53:54;;;;;;;;;;;2.90;99.90;;;;;;4924453;28;19994;-80
2022/01/06 09:56:20;;;;;;;;;;;3.00;99.90;;;;;;4942264;28;20050;-80
2022/01/06 09:58:46;;;;;;;;;;;3.20;99.90;;;;;;4943133;28;19906;-80
2022/01/06 10:01:13;;;;;;;;;;;3.30;99.90;;;;;;4948183;28;19918;-79
2022/01/06 10:03:45;;;;;;;;;;;3.40;99.90;;;;;;4939725;28;19914;-80
2022/01/06 10:06:13;;;;;;;;;;;3.60;99.90;;;;;;4944174;28;19906;-80
2022/01/06 10:08:40;;;;;;;;;;;3.80;99.90;;;;;;4959673;28;19914;-79
2022/01/06 10:11:07;;;;;;;;;;;4.10;99.90;;;;;;4960232;28;19925;-79
2022/01/06 10:13:33;;;;;;;;;;;4.30;99.90;;;;;;4940358;28;19914;-77
2022/01/06 10:16:10;;;;;;;;;;;4.50;99.90;;;;;;4943216;28;20289;-78
2022/01/06 10:18:36;;;;;;;;;;;4.80;99.90;;;;;;4942321;28;19914;-77
2022/01/06 10:21:11;;;;;;;;;;;5.00;99.90;;;;;;4956734;28;19906;-78
2022/01/06 10:23:37;;;;;;;;;;;5.30;99.90;;;;;;4955827;28;19914;-77
2022/01/06 10:26:13;;;;;;;;;;;5.60;99.90;;;;;;4943274;28;20281;-77
2022/01/06 10:28:39;;;;;;;;;;;5.80;99.90;;;;;;4943288;28;19914;-77
2022/01/06 10:31:06;;;;;;;;;;;6.00;99.90;;;;;;4912912;28;19921;-78
2022/01/06 10:33:34;;;;;;;;;;;6.30;99.90;;;;;;4955409;28;19906;-78
2022/01/06 10:36:07;;;;;;;;;;;6.50;99.90;;;;;;4959499;28;19917;-78
2022/01/06 10:38:34;;;;;;;;;;;6.70;99.90;;;;;;4943082;28;19925;-78
2022/01/06 10:41:15;;;;;;;;;;;6.80;99.90;;;;;;4941258;28;20362;-78
2022/01/06 10:43:42;;;;;;;;;;;6.90;99.90;;;;;;4938880;28;19917;-78
2022/01/06 10:46:08;;;;;;;;;;;6.90;99.90;;;;;;4958181;28;19914;-77
2022/01/06 10:48:34;;;;;;;;;;;6.70;99.90;;;;;;4942495;28;19917;-78
2022/01/06 10:51:01;;;;;;;;;;;6.50;99.90;;;;;;4956609;28;19921;-77
2022/01/06 10:53:28;;;;;;;;;;;6.30;99.90;;;;;;4926858;28;19906;-78
2022/01/06 10:55:54;;;;;;;;;;;6.20;99.90;;;;;;4942183;28;19925;-77
2022/01/06 10:58:22;;;;;;;;;;;6.00;99.90;;;;;;4958385;28;19917;-77
2022/01/06 11:00:52;;;;;;;;;;;5.90;99.90;;;;;;4957006;28;19936;-77
2022/01/06 11:03:19;;;;;;;;;;;5.70;99.90;;;;;;4939075;28;19921;-77
2022/01/06 11:05:51;;;;;;;;;;;5.60;99.90;;;;;;4927297;28;20308;-77
2022/01/06 11:08:20;;;;;;;;;;;5.50;99.90;;;;;;4942255;28;19910;-76
2022/01/06 11:10:50;;;;;;;;;;;5.40;99.90;;;;;;4956218;28;19937;-77
2022/01/06 11:13:17;;;;;;;;;;;5.30;99.90;;;;;;4955171;28;19914;-77
2022/01/06 11:15:44;;;;;;;;;;;5.30;99.90;;;;;;4957761;28;19926;-76
2022/01/06 11:18:16;;;;;;;;;;;5.20;99.90;;;;;;4926333;28;19922;-77
2022/01/06 11:20:42;;;;;;;;;;;5.10;99.90;;;;;;4926473;28;19921;-77
2022/01/06 11:23:18;;;;;;;;;;;5.10;99.90;;;;;;4925218;28;19915;-77
2022/01/06 11:25:44;;;;;;;;;;;5.00;99.90;;;;;;4941495;28;19910;-77
2022/01/06 11:28:11;;;;;;;;;;;5.00;99.90;;;;;;4942663;28;20257;-77
2022/01/06 11:30:49;;;;;;;;;;;5.00;99.90;;;;;;4956574;28;19910;-77
2022/01/06 11:33:15;;;;;;;;;;;4.90;99.90;;;;;;4954758;28;19910;-77
2022/01/06 11:35:52;;;;;;;;;;;4.90;99.90;;;;;;4942248;28;20285;-77
2022/01/06 11:38:20;;;;;;;;;;;4.90;99.90;;;;;;4957382;28;19925;-76
2022/01/06 11:40:47;;;;;;;;;;;4.80;99.90;;;;;;4927146;28;20259;-77
2022/01/06 11:43:13;;;;;;;;;;;4.80;99.90;;;;;;4925135;28;20289;-77
2022/01/06 11:45:40;;;;;;;;;;;4.80;99.90;;;;;;4940992;28;20285;-77
2022/01/06 11:48:07;;;;;;;;;;;4.80;99.90;;;;;;4942069;28;19917;-80
2022/01/06 11:50:39;;;;;;;;;;;4.80;99.90;;;;;;4939978;28;20276;-80
2022/01/06 11:53:07;;;;;;;;;;;4.80;99.90;;;;;;4939120;28;19913;-81
2022/01/06 11:55:38;;;;;;;;;;;4.80;99.90;;;;;;4941835;28;19917;-86
2022/01/06 11:58:07;;;;;;;;;;;4.80;99.90;;;;;;4941715;28;20287;-80
2022/01/06 12:00:35;;;;;;;;;;;4.80;99.90;;;;;;4955273;28;19925;-80
2022/01/06 12:03:01;;;;;;;;;;;4.80;99.90;;;;;;4955727;28;19925;-76
2022/01/06 12:05:39;;;;;;;;;;;4.80;99.90;;;;;;4944141;28;19906;-76
2022/01/06 12:08:05;;;;;;;;;;;4.80;99.90;;;;;;4943476;28;19925;-76
2022/01/06 12:10:38;;;;;;;;;;;4.80;99.90;;;;;;4942249;28;19933;-76
2022/01/06 12:13:04;;;;;;;;;;;4.80;99.90;;;;;;4926963;28;19937;-77
2022/01/06 12:15:31;;;;;;;;;;;4.80;99.90;;;;;;4942182;28;20468;-76
2022/01/06 12:17:59;;;;;;;;;;;4.80;99.90;;;;;;4943332;28;19926;-77
2022/01/06 12:20:28;;;;;;;;;;;4.80;99.90;;;;;;4958663;28;19910;-77
2022/01/06 12:22:55;;;;;;;;;;;4.90;99.90;;;;;;4943716;28;19933;-77
2022/01/06 12:25:25;;;;;;;;;;;4.90;99.90;;;;;;4946524;28;19918;-77
2022/01/06 12:27:53;;;;;;;;;;;4.90;99.90;;;;;;4947502;28;19914;-77
2022/01/06 12:30:21;;;;;;;;;;;4.90;99.90;;;;;;4944998;28;19910;-77
2022/01/06 12:32:57;;;;;;;;;;;4.90;99.90;;;;;;4943202;28;19917;-79
2022/01/06 12:35:53;;;;;;;;;;;4.90;99.90;;;;;;4944847;28;19941;-77
2022/01/06 12:38:26;;;;;;;;;;;5.00;99.90;;;;;;4953513;28;19925;-77
2022/01/06 12:40:53;;;;;;;;;;;4.90;99.90;;;;;;4946232;28;19914;-78
2022/01/06 12:43:21;;;;;;;;;;;5.00;99.90;;;;;;4929123;28;19918;-78
2022/01/06 12:45:59;;;;;;;;;;;5.00;99.90;;;;;;4963959;28;19910;-77
2022/01/06 12:48:31;;;;;;;;;;;5.00;99.90;;;;;;4948398;28;19910;-77
2022/01/06 12:50:57;;;;;;;;;;;5.10;99.90;;;;;;4962345;28;19917;-79
2022/01/06 12:53:32;;;;;;;;;;;5.10;99.90;;;;;;4943723;28;19913;-78
2022/01/06 12:55:59;;;;;;;;;;;5.20;99.90;;;;;;4948541;28;19910;-78
2022/01/06 12:58:27;;;;;;;;;;;5.20;99.90;;;;;;4948593;28;19922;-81
2022/01/06 13:00:54;;;;;;;;;;;5.20;99.90;;;;;;4945926;28;19910;-78
2022/01/06 13:03:31;;;;;;;;;;;5.20;99.90;;;;;;4914836;28;19922;-78
2022/01/06 13:05:58;;;;;;;;;;;5.20;99.90;;;;;;4947704;28;19986;-78
2022/01/06 13:08:24;;;;;;;;;;;5.20;99.90;;;;;;4946526;28;19929;-78
2022/01/06 13:11:06;;;;;;;;;;;5.20;99.90;;;;;;4930102;28;19929;-78
2022/01/06 13:14:02;;;;;;;;;;;5.20;99.90;;;;;;4938634;28;19914;-78
2022/01/06 13:16:30;;;;;;;;;;;5.20;99.90;;;;;;4944090;28;19921;-78
2022/01/06 13:18:58;;;;;;;;;;;5.20;99.90;;;;;;4946019;28;19914;-78
2022/01/06 13:21:29;;;;;;;;;;;5.20;99.90;;;;;;4933610;28;19913;-77
2022/01/06 13:23:55;;;;;;;;;;;5.30;99.90;;;;;;4942158;28;19917;-77
2022/01/06 13:26:23;;;;;;;;;;;5.40;99.90;;;;;;4930840;28;20455;-78
2022/01/06 13:28:56;;;;;;;;;;;5.60;99.90;;;;;;4962751;28;19925;-77
2022/01/06 13:31:23;;;;;;;;;;;5.70;99.90;;;;;;4960992;28;19917;-78
2022/01/06 13:33:54;;;;;;;;;;;5.90;99.90;;;;;;4958888;28;19929;-77
2022/01/06 13:36:32;;;;;;;;;;;6.00;99.90;;;;;;4947661;28;19918;-78
2022/01/06 13:39:06;;;;;;;;;;;6.10;99.90;;;;;;4963225;28;19918;-78
2022/01/06 13:41:33;;;;;;;;;;;6.20;99.90;;;;;;4946948;28;19914;-79
2022/01/06 13:43:59;;;;;;;;;;;6.10;99.90;;;;;;4942111;28;19918;-78
2022/01/06 13:46:40;;;;;;;;;;;6.10;99.90;;;;;;4958782;28;19918;-78
2022/01/06 13:51:51;;;;;;;;;;;5.90;99.90;;;;;;4959905;28;19941;-78
2022/01/06 13:54:19;;;;;;;;;;;5.80;99.90;;;;;;4914497;28;19918;-79
2022/01/06 13:56:45;;;;;;;;;;;5.80;99.90;;;;;;4947436;28;19922;-78
2022/01/06 13:59:13;;;;;;;;;;;5.70;99.90;;;;;;4962507;28;19910;-78
2022/01/06 14:01:44;;;;;;;;;;;5.70;99.90;;;;;;4944180;28;19923;-78
2022/01/06 14:04:18;;;;;;;;;;;5.70;99.90;;;;;;4944311;28;19925;-79
2022/01/06 14:06:44;;;;;;;;;;;5.60;99.90;;;;;;4946398;28;20349;-79
2022/01/06 14:09:11;;;;;;;;;;;5.60;99.90;;;;;;4962926;28;19911;-79
2022/01/06 14:11:37;;;;;;;;;;;5.50;99.90;;;;;;4958262;28;19921;-79
2022/01/06 14:14:03;;;;;;;;;;;5.50;99.90;;;;;;4943747;28;19918;-79
2022/01/06 14:16:30;;;;;;;;;;;5.40;99.90;;;;;;4963197;28;19929;-78
2022/01/06 14:18:56;;;;;;;;;;;5.40;99.90;;;;;;4931455;28;19933;-79
2022/01/06 14:21:22;;;;;;;;;;;5.40;99.90;;;;;;4936177;28;19922;-77
2022/01/06 14:23:48;;;;;;;;;;;5.40;99.90;;;;;;4928075;28;19906;-78
2022/01/06 14:26:15;;;;;;;;;;;5.30;99.90;;;;;;4946244;28;19914;-78
2022/01/06 14:28:41;;;;;;;;;;;5.30;99.90;;;;;;4946619;28;19925;-79
2022/01/06 14:31:08;;;;;;;;;;;5.30;99.90;;;;;;4962713;28;19918;-79
2022/01/06 14:33:36;;;;;;;;;;;5.30;99.90;;;;;;4949276;28;20177;-78
2022/01/06 14:36:03;;;;;;;;;;;5.30;99.90;;;;;;4964841;28;19910;-78
2022/01/06 14:38:29;;;;;;;;;;;5.20;99.90;;;;;;4954216;28;19929;-78
2022/01/06 14:40:56;;;;;;;;;;;5.20;99.90;;;;;;4950945;28;19920;-79